sensor_id;sensor_type;location;lat;lon;timestamp;P1;durP1;ratioP1;P2;durP2;ratioP2
58372;SDS011;44177;43.356;27.672;2022-12-08T00:02:15;15.68;;;8.60;;
58372;SDS011;44177;43.356;27.672;2022-12-08T00:04:41;13.93;;;8.68;;
58372;SDS011;44177;43.356;27.672;2022-12-08T00:07:25;13.60;;;8.55;;
58372;SDS011;44177;43.356;27.672;2022-12-08T00:10:09;14.35;;;9.20;;
58372;SDS011;44177;43.356;27.672;2022-12-08T00:12:34;14.38;;;9.13;;
58372;SDS011;44177;43.356;27.672;2022-12-08T00:15:00;15.57;;;9.18;;
58372;SDS011;44177;43.356;27.672;2022-12-08T00:17:25;13.32;;;8.43;;
58372;SDS011;44177;43.356;27.672;2022-12-08T00:19:51;13.63;;;8.70;;
58372;SDS011;44177;43.356;27.672;2022-12-08T00:22:16;17.10;;;9.10;;
58372;SDS011;44177;43.356;27.672;2022-12-08T00:24:42;12.13;;;7.93;;
58372;SDS011;44177;43.356;27.672;2022-12-08T00:27:12;14.10;;;8.95;;
58372;SDS011;44177;43.356;27.672;2022-12-08T00:29:39;15.18;;;8.90;;
58372;SDS011;44177;43.356;27.672;2022-12-08T00:32:07;15.80;;;8.80;;
58372;SDS011;44177;43.356;27.672;2022-12-08T00:34:32;13.02;;;8.18;;
58372;SDS011;44177;43.356;27.672;2022-12-08T00:36:58;14.80;;;9.05;;
58372;SDS011;44177;43.356;27.672;2022-12-08T00:39:24;14.48;;;9.07;;
58372;SDS011;44177;43.356;27.672;2022-12-08T00:41:49;14.95;;;8.77;;
58372;SDS011;44177;43.356;27.672;2022-12-08T00:44:33;15.02;;;9.50;;
58372;SDS011;44177;43.356;27.672;2022-12-08T00:46:59;16.52;;;9.05;;
58372;SDS011;44177;43.356;27.672;2022-12-08T00:49:24;14.65;;;9.07;;
58372;SDS011;44177;43.356;27.672;2022-12-08T00:51:50;15.10;;;8.82;;
58372;SDS011;44177;43.356;27.672;2022-12-08T00:54:16;15.90;;;9.70;;
58372;SDS011;44177;43.356;27.672;2022-12-08T00:56:42;14.65;;;9.02;;
58372;SDS011;44177;43.356;27.672;2022-12-08T00:59:07;15.90;;;9.30;;
58372;SDS011;44177;43.356;27.672;2022-12-08T01:01:33;16.63;;;9.68;;
58372;SDS011;44177;43.356;27.672;2022-12-08T01:04:02;15.77;;;9.07;;
58372;SDS011;44177;43.356;27.672;2022-12-08T01:06:29;15.23;;;8.82;;
58372;SDS011;44177;43.356;27.672;2022-12-08T01:08:54;14.70;;;8.85;;
58372;SDS011;44177;43.356;27.672;2022-12-08T01:11:20;16.13;;;10.00;;
58372;SDS011;44177;43.356;27.672;2022-12-08T01:13:45;13.10;;;8.30;;
58372;SDS011;44177;43.356;27.672;2022-12-08T01:16:24;15.63;;;9.70;;
58372;SDS011;44177;43.356;27.672;2022-12-08T01:18:51;15.38;;;9.07;;
58372;SDS011;44177;43.356;27.672;2022-12-08T01:21:18;12.48;;;8.57;;
58372;SDS011;44177;43.356;27.672;2022-12-08T01:23:44;16.92;;;9.25;;
58372;SDS011;44177;43.356;27.672;2022-12-08T01:26:11;14.48;;;8.93;;
58372;SDS011;44177;43.356;27.672;2022-12-08T01:28:38;13.30;;;8.80;;
58372;SDS011;44177;43.356;27.672;2022-12-08T01:31:04;14.30;;;8.90;;
58372;SDS011;44177;43.356;27.672;2022-12-08T01:33:30;13.27;;;8.85;;
58372;SDS011;44177;43.356;27.672;2022-12-08T01:35:58;15.23;;;8.70;;
58372;SDS011;44177;43.356;27.672;2022-12-08T01:38:28;13.85;;;9.00;;
58372;SDS011;44177;43.356;27.672;2022-12-08T01:40:54;12.93;;;8.48;;
58372;SDS011;44177;43.356;27.672;2022-12-08T01:43:19;15.05;;;8.85;;
58372;SDS011;44177;43.356;27.672;2022-12-08T01:45:45;14.10;;;8.40;;
58372;SDS011;44177;43.356;27.672;2022-12-08T01:48:22;13.35;;;8.52;;
58372;SDS011;44177;43.356;27.672;2022-12-08T01:50:49;15.43;;;8.15;;
58372;SDS011;44177;43.356;27.672;2022-12-08T01:53:22;12.25;;;8.60;;
58372;SDS011;44177;43.356;27.672;2022-12-08T01:55:54;14.57;;;8.45;;
58372;SDS011;44177;43.356;27.672;2022-12-08T01:58:36;12.20;;;8.15;;
58372;SDS011;44177;43.356;27.672;2022-12-08T02:01:05;14.25;;;8.32;;
58372;SDS011;44177;43.356;27.672;2022-12-08T02:03:39;12.77;;;8.35;;
58372;SDS011;44177;43.356;27.672;2022-12-08T02:06:08;14.07;;;8.73;;
58372;SDS011;44177;43.356;27.672;2022-12-08T02:08:35;13.10;;;8.23;;
58372;SDS011;44177;43.356;27.672;2022-12-08T02:11:04;15.07;;;8.40;;
58372;SDS011;44177;43.356;27.672;2022-12-08T02:13:33;14.65;;;8.70;;
58372;SDS011;44177;43.356;27.672;2022-12-08T02:30:42;13.13;;;7.78;;
58372;SDS011;44177;43.356;27.672;2022-12-08T02:36:13;12.32;;;7.65;;
58372;SDS011;44177;43.356;27.672;2022-12-08T02:38:58;12.23;;;8.23;;
58372;SDS011;44177;43.356;27.672;2022-12-08T02:42:01;13.82;;;7.53;;
58372;SDS011;44177;43.356;27.672;2022-12-08T02:44:57;13.32;;;8.07;;
58372;SDS011;44177;43.356;27.672;2022-12-08T02:47:42;13.80;;;8.10;;
58372;SDS011;44177;43.356;27.672;2022-12-08T02:50:09;14.93;;;7.82;;
58372;SDS011;44177;43.356;27.672;2022-12-08T02:52:38;14.13;;;7.53;;
58372;SDS011;44177;43.356;27.672;2022-12-08T02:55:06;12.20;;;7.10;;
58372;SDS011;44177;43.356;27.672;2022-12-08T03:00:30;13.73;;;7.35;;
58372;SDS011;44177;43.356;27.672;2022-12-08T03:06:04;10.23;;;6.55;;
58372;SDS011;44177;43.356;27.672;2022-12-08T03:11:10;10.95;;;7.15;;
58372;SDS011;44177;43.356;27.672;2022-12-08T03:13:45;10.35;;;6.93;;
58372;SDS011;44177;43.356;27.672;2022-12-08T03:16:15;9.70;;;6.72;;
58372;SDS011;44177;43.356;27.672;2022-12-08T03:18:46;11.20;;;6.95;;
58372;SDS011;44177;43.356;27.672;2022-12-08T03:21:15;9.52;;;6.65;;
58372;SDS011;44177;43.356;27.672;2022-12-08T03:23:43;10.45;;;6.63;;
58372;SDS011;44177;43.356;27.672;2022-12-08T03:26:15;12.13;;;7.28;;
58372;SDS011;44177;43.356;27.672;2022-12-08T03:28:44;11.98;;;7.05;;
58372;SDS011;44177;43.356;27.672;2022-12-08T03:31:11;11.25;;;7.00;;
58372;SDS011;44177;43.356;27.672;2022-12-08T03:33:39;12.48;;;7.43;;
58372;SDS011;44177;43.356;27.672;2022-12-08T03:36:08;10.27;;;6.78;;
58372;SDS011;44177;43.356;27.672;2022-12-08T03:38:40;12.73;;;7.30;;
58372;SDS011;44177;43.356;27.672;2022-12-08T03:41:07;11.60;;;7.60;;
58372;SDS011;44177;43.356;27.672;2022-12-08T03:43:52;12.10;;;7.43;;
58372;SDS011;44177;43.356;27.672;2022-12-08T03:46:21;8.70;;;5.88;;
58372;SDS011;44177;43.356;27.672;2022-12-08T03:48:48;9.75;;;6.57;;
58372;SDS011;44177;43.356;27.672;2022-12-08T03:51:14;10.27;;;6.70;;
58372;SDS011;44177;43.356;27.672;2022-12-08T03:53:40;10.55;;;6.65;;
58372;SDS011;44177;43.356;27.672;2022-12-08T03:56:20;10.98;;;6.68;;
58372;SDS011;44177;43.356;27.672;2022-12-08T03:58:50;10.93;;;6.82;;
58372;SDS011;44177;43.356;27.672;2022-12-08T04:01:15;10.07;;;6.13;;
58372;SDS011;44177;43.356;27.672;2022-12-08T04:03:41;10.75;;;6.32;;
58372;SDS011;44177;43.356;27.672;2022-12-08T04:06:06;9.13;;;6.22;;
58372;SDS011;44177;43.356;27.672;2022-12-08T04:08:32;10.30;;;6.70;;
58372;SDS011;44177;43.356;27.672;2022-12-08T04:10:58;10.52;;;6.03;;
58372;SDS011;44177;43.356;27.672;2022-12-08T04:13:23;10.38;;;6.70;;
58372;SDS011;44177;43.356;27.672;2022-12-08T04:15:49;10.15;;;6.43;;
58372;SDS011;44177;43.356;27.672;2022-12-08T04:18:14;9.38;;;6.03;;
58372;SDS011;44177;43.356;27.672;2022-12-08T04:20:40;9.35;;;5.72;;
58372;SDS011;44177;43.356;27.672;2022-12-08T04:23:07;10.13;;;6.10;;
58372;SDS011;44177;43.356;27.672;2022-12-08T04:25:32;10.00;;;6.32;;
58372;SDS011;44177;43.356;27.672;2022-12-08T04:27:58;10.57;;;6.60;;
58372;SDS011;44177;43.356;27.672;2022-12-08T04:30:24;9.38;;;6.25;;
58372;SDS011;44177;43.356;27.672;2022-12-08T04:32:49;11.75;;;6.85;;
58372;SDS011;44177;43.356;27.672;2022-12-08T04:35:15;9.93;;;6.57;;
58372;SDS011;44177;43.356;27.672;2022-12-08T04:37:41;10.15;;;6.50;;
58372;SDS011;44177;43.356;27.672;2022-12-08T04:40:08;9.50;;;6.47;;
58372;SDS011;44177;43.356;27.672;2022-12-08T04:42:34;10.95;;;6.10;;
58372;SDS011;44177;43.356;27.672;2022-12-08T04:44:59;8.85;;;6.43;;
58372;SDS011;44177;43.356;27.672;2022-12-08T04:47:25;8.95;;;6.00;;
58372;SDS011;44177;43.356;27.672;2022-12-08T04:49:50;11.30;;;7.38;;
58372;SDS011;44177;43.356;27.672;2022-12-08T04:52:16;10.40;;;6.78;;
58372;SDS011;44177;43.356;27.672;2022-12-08T04:54:41;8.73;;;5.78;;
58372;SDS011;44177;43.356;27.672;2022-12-08T04:57:07;10.02;;;6.07;;
58372;SDS011;44177;43.356;27.672;2022-12-08T04:59:32;9.40;;;6.60;;
58372;SDS011;44177;43.356;27.672;2022-12-08T05:01:58;9.13;;;5.82;;
58372;SDS011;44177;43.356;27.672;2022-12-08T05:04:23;10.82;;;6.47;;
58372;SDS011;44177;43.356;27.672;2022-12-08T05:06:49;9.00;;;6.03;;
58372;SDS011;44177;43.356;27.672;2022-12-08T05:09:14;9.98;;;6.28;;
58372;SDS011;44177;43.356;27.672;2022-12-08T05:11:40;11.07;;;6.70;;
58372;SDS011;44177;43.356;27.672;2022-12-08T05:14:09;9.45;;;5.95;;
58372;SDS011;44177;43.356;27.672;2022-12-08T05:16:35;9.60;;;5.97;;
58372;SDS011;44177;43.356;27.672;2022-12-08T05:19:02;9.32;;;6.05;;
58372;SDS011;44177;43.356;27.672;2022-12-08T05:21:27;9.88;;;6.35;;
58372;SDS011;44177;43.356;27.672;2022-12-08T05:23:53;9.55;;;5.97;;
58372;SDS011;44177;43.356;27.672;2022-12-08T05:26:18;9.55;;;6.15;;
58372;SDS011;44177;43.356;27.672;2022-12-08T05:28:44;8.43;;;5.97;;
58372;SDS011;44177;43.356;27.672;2022-12-08T05:31:13;9.38;;;5.97;;
58372;SDS011;44177;43.356;27.672;2022-12-08T05:33:39;8.85;;;6.20;;
58372;SDS011;44177;43.356;27.672;2022-12-08T05:36:06;8.82;;;5.93;;
58372;SDS011;44177;43.356;27.672;2022-12-08T05:38:32;8.93;;;5.63;;
58372;SDS011;44177;43.356;27.672;2022-12-08T05:40:58;9.75;;;6.32;;
58372;SDS011;44177;43.356;27.672;2022-12-08T05:43:23;9.20;;;6.18;;
58372;SDS011;44177;43.356;27.672;2022-12-08T05:45:48;9.43;;;6.18;;
58372;SDS011;44177;43.356;27.672;2022-12-08T05:48:14;10.32;;;5.70;;
58372;SDS011;44177;43.356;27.672;2022-12-08T05:50:44;9.15;;;5.93;;
58372;SDS011;44177;43.356;27.672;2022-12-08T05:53:11;9.38;;;5.97;;
58372;SDS011;44177;43.356;27.672;2022-12-08T05:55:36;8.38;;;5.45;;
58372;SDS011;44177;43.356;27.672;2022-12-08T05:58:02;10.40;;;6.45;;
58372;SDS011;44177;43.356;27.672;2022-12-08T06:00:27;8.18;;;5.55;;
58372;SDS011;44177;43.356;27.672;2022-12-08T06:02:53;7.95;;;5.82;;
58372;SDS011;44177;43.356;27.672;2022-12-08T06:05:18;9.68;;;6.53;;
58372;SDS011;44177;43.356;27.672;2022-12-08T06:07:43;8.80;;;6.13;;
58372;SDS011;44177;43.356;27.672;2022-12-08T06:10:09;10.02;;;5.65;;
58372;SDS011;44177;43.356;27.672;2022-12-08T06:12:35;9.40;;;5.90;;
58372;SDS011;44177;43.356;27.672;2022-12-08T06:15:00;11.95;;;7.40;;
58372;SDS011;44177;43.356;27.672;2022-12-08T06:17:26;14.10;;;7.88;;
58372;SDS011;44177;43.356;27.672;2022-12-08T06:19:51;17.10;;;9.20;;
58372;SDS011;44177;43.356;27.672;2022-12-08T06:22:16;16.20;;;8.98;;
58372;SDS011;44177;43.356;27.672;2022-12-08T06:24:42;16.70;;;9.48;;
58372;SDS011;44177;43.356;27.672;2022-12-08T06:27:07;18.17;;;9.00;;
58372;SDS011;44177;43.356;27.672;2022-12-08T06:29:33;17.90;;;9.82;;
58372;SDS011;44177;43.356;27.672;2022-12-08T06:31:58;17.88;;;9.73;;
58372;SDS011;44177;43.356;27.672;2022-12-08T06:34:24;20.15;;;10.00;;
58372;SDS011;44177;43.356;27.672;2022-12-08T06:36:49;27.52;;;11.27;;
58372;SDS011;44177;43.356;27.672;2022-12-08T06:39:14;24.33;;;11.45;;
58372;SDS011;44177;43.356;27.672;2022-12-08T06:41:40;33.28;;;12.70;;
58372;SDS011;44177;43.356;27.672;2022-12-08T06:44:25;64.03;;;13.40;;
58372;SDS011;44177;43.356;27.672;2022-12-08T06:46:51;49.65;;;13.73;;
58372;SDS011;44177;43.356;27.672;2022-12-08T06:49:16;57.05;;;13.18;;
58372;SDS011;44177;43.356;27.672;2022-12-08T06:51:42;50.60;;;14.63;;
58372;SDS011;44177;43.356;27.672;2022-12-08T06:54:07;49.13;;;14.85;;
58372;SDS011;44177;43.356;27.672;2022-12-08T06:56:32;63.72;;;17.55;;
58372;SDS011;44177;43.356;27.672;2022-12-08T06:58:58;64.57;;;21.90;;
58372;SDS011;44177;43.356;27.672;2022-12-08T07:01:23;73.18;;;20.00;;
58372;SDS011;44177;43.356;27.672;2022-12-08T07:03:49;68.40;;;22.50;;
58372;SDS011;44177;43.356;27.672;2022-12-08T07:06:15;65.93;;;21.52;;
58372;SDS011;44177;43.356;27.672;2022-12-08T07:08:44;70.43;;;22.95;;
58372;SDS011;44177;43.356;27.672;2022-12-08T07:11:12;67.45;;;22.45;;
58372;SDS011;44177;43.356;27.672;2022-12-08T07:13:37;68.72;;;23.63;;
58372;SDS011;44177;43.356;27.672;2022-12-08T07:16:04;73.15;;;23.42;;
58372;SDS011;44177;43.356;27.672;2022-12-08T07:18:30;76.35;;;23.85;;
58372;SDS011;44177;43.356;27.672;2022-12-08T07:21:00;83.75;;;23.17;;
58372;SDS011;44177;43.356;27.672;2022-12-08T07:23:30;91.20;;;23.80;;
58372;SDS011;44177;43.356;27.672;2022-12-08T07:25:58;68.60;;;21.90;;
58372;SDS011;44177;43.356;27.672;2022-12-08T07:28:24;69.55;;;22.70;;
58372;SDS011;44177;43.356;27.672;2022-12-08T07:30:50;64.25;;;23.77;;
58372;SDS011;44177;43.356;27.672;2022-12-08T07:33:15;63.50;;;22.27;;
58372;SDS011;44177;43.356;27.672;2022-12-08T07:35:40;62.35;;;20.63;;
58372;SDS011;44177;43.356;27.672;2022-12-08T07:38:08;68.50;;;22.40;;
58372;SDS011;44177;43.356;27.672;2022-12-08T07:40:37;74.70;;;21.67;;
58372;SDS011;44177;43.356;27.672;2022-12-08T07:43:03;66.25;;;23.75;;
58372;SDS011;44177;43.356;27.672;2022-12-08T07:45:28;68.30;;;22.58;;
58372;SDS011;44177;43.356;27.672;2022-12-08T07:47:54;56.33;;;21.00;;
58372;SDS011;44177;43.356;27.672;2022-12-08T07:50:19;81.13;;;23.80;;
58372;SDS011;44177;43.356;27.672;2022-12-08T07:52:45;70.63;;;22.23;;
58372;SDS011;44177;43.356;27.672;2022-12-08T07:55:10;64.80;;;22.67;;
58372;SDS011;44177;43.356;27.672;2022-12-08T07:57:35;77.95;;;24.95;;
58372;SDS011;44177;43.356;27.672;2022-12-08T08:00:02;71.13;;;24.42;;
58372;SDS011;44177;43.356;27.672;2022-12-08T08:02:29;63.33;;;23.55;;
58372;SDS011;44177;43.356;27.672;2022-12-08T08:04:54;71.00;;;24.40;;
58372;SDS011;44177;43.356;27.672;2022-12-08T08:07:19;67.55;;;23.50;;
58372;SDS011;44177;43.356;27.672;2022-12-08T08:09:45;73.22;;;23.30;;
58372;SDS011;44177;43.356;27.672;2022-12-08T08:12:10;72.00;;;23.55;;
58372;SDS011;44177;43.356;27.672;2022-12-08T08:14:36;62.40;;;22.35;;
58372;SDS011;44177;43.356;27.672;2022-12-08T08:17:01;64.93;;;23.23;;
58372;SDS011;44177;43.356;27.672;2022-12-08T08:19:27;67.65;;;22.75;;
58372;SDS011;44177;43.356;27.672;2022-12-08T08:21:53;70.30;;;22.95;;
58372;SDS011;44177;43.356;27.672;2022-12-08T08:24:18;60.25;;;22.17;;
58372;SDS011;44177;43.356;27.672;2022-12-08T08:26:45;59.08;;;21.88;;
58372;SDS011;44177;43.356;27.672;2022-12-08T08:29:11;56.15;;;21.98;;
58372;SDS011;44177;43.356;27.672;2022-12-08T08:31:36;61.95;;;21.52;;
58372;SDS011;44177;43.356;27.672;2022-12-08T08:34:01;52.33;;;21.70;;
58372;SDS011;44177;43.356;27.672;2022-12-08T08:36:30;60.08;;;22.58;;
58372;SDS011;44177;43.356;27.672;2022-12-08T08:38:55;54.38;;;20.77;;
58372;SDS011;44177;43.356;27.672;2022-12-08T08:41:21;57.55;;;21.40;;
58372;SDS011;44177;43.356;27.672;2022-12-08T08:43:46;60.30;;;21.95;;
58372;SDS011;44177;43.356;27.672;2022-12-08T08:46:12;63.10;;;22.23;;
58372;SDS011;44177;43.356;27.672;2022-12-08T08:48:37;51.50;;;21.23;;
58372;SDS011;44177;43.356;27.672;2022-12-08T08:51:07;54.47;;;19.85;;
58372;SDS011;44177;43.356;27.672;2022-12-08T08:53:34;52.75;;;20.05;;
58372;SDS011;44177;43.356;27.672;2022-12-08T08:56:00;52.30;;;20.48;;
58372;SDS011;44177;43.356;27.672;2022-12-08T08:58:25;61.75;;;20.45;;
58372;SDS011;44177;43.356;27.672;2022-12-08T09:00:51;64.10;;;20.15;;
58372;SDS011;44177;43.356;27.672;2022-12-08T09:03:16;56.22;;;21.40;;
58372;SDS011;44177;43.356;27.672;2022-12-08T09:05:43;67.40;;;23.00;;
58372;SDS011;44177;43.356;27.672;2022-12-08T09:08:08;62.38;;;22.13;;
58372;SDS011;44177;43.356;27.672;2022-12-08T09:10:34;71.85;;;23.58;;
58372;SDS011;44177;43.356;27.672;2022-12-08T09:13:00;65.43;;;23.23;;
58372;SDS011;44177;43.356;27.672;2022-12-08T09:15:25;54.58;;;24.13;;
58372;SDS011;44177;43.356;27.672;2022-12-08T09:17:51;60.17;;;23.42;;
58372;SDS011;44177;43.356;27.672;2022-12-08T09:20:16;78.68;;;24.30;;
58372;SDS011;44177;43.356;27.672;2022-12-08T09:22:42;62.67;;;25.27;;
58372;SDS011;44177;43.356;27.672;2022-12-08T09:25:07;65.10;;;25.48;;
58372;SDS011;44177;43.356;27.672;2022-12-08T09:27:33;68.35;;;26.48;;
58372;SDS011;44177;43.356;27.672;2022-12-08T09:29:59;74.70;;;25.77;;
58372;SDS011;44177;43.356;27.672;2022-12-08T09:32:24;68.13;;;26.20;;
58372;SDS011;44177;43.356;27.672;2022-12-08T09:34:49;67.65;;;26.27;;
58372;SDS011;44177;43.356;27.672;2022-12-08T09:37:15;68.50;;;27.48;;
58372;SDS011;44177;43.356;27.672;2022-12-08T09:39:41;69.25;;;25.95;;
58372;SDS011;44177;43.356;27.672;2022-12-08T09:42:06;67.50;;;26.05;;
58372;SDS011;44177;43.356;27.672;2022-12-08T09:52:35;68.18;;;27.33;;
58372;SDS011;44177;43.356;27.672;2022-12-08T09:55:09;77.50;;;30.35;;
58372;SDS011;44177;43.356;27.672;2022-12-08T09:57:40;78.15;;;30.67;;
58372;SDS011;44177;43.356;27.672;2022-12-08T10:00:06;78.60;;;31.65;;
58372;SDS011;44177;43.356;27.672;2022-12-08T10:02:36;70.53;;;31.20;;
58372;SDS011;44177;43.356;27.672;2022-12-08T10:05:01;74.55;;;32.33;;
58372;SDS011;44177;43.356;27.672;2022-12-08T10:10:28;80.30;;;32.58;;
58372;SDS011;44177;43.356;27.672;2022-12-08T10:13:04;73.20;;;29.80;;
58372;SDS011;44177;43.356;27.672;2022-12-08T10:15:49;71.50;;;31.20;;
58372;SDS011;44177;43.356;27.672;2022-12-08T10:18:19;77.00;;;31.05;;
58372;SDS011;44177;43.356;27.672;2022-12-08T10:20:49;75.03;;;32.83;;
58372;SDS011;44177;43.356;27.672;2022-12-08T10:23:35;68.97;;;30.42;;
58372;SDS011;44177;43.356;27.672;2022-12-08T10:26:03;72.30;;;32.70;;
58372;SDS011;44177;43.356;27.672;2022-12-08T10:28:31;69.57;;;32.20;;
58372;SDS011;44177;43.356;27.672;2022-12-08T10:30:58;69.30;;;31.05;;
58372;SDS011;44177;43.356;27.672;2022-12-08T10:33:24;66.57;;;30.65;;
58372;SDS011;44177;43.356;27.672;2022-12-08T10:35:51;65.70;;;30.63;;
58372;SDS011;44177;43.356;27.672;2022-12-08T10:38:23;65.10;;;30.92;;
58372;SDS011;44177;43.356;27.672;2022-12-08T10:41:03;63.90;;;30.70;;
58372;SDS011;44177;43.356;27.672;2022-12-08T10:46:18;66.60;;;30.70;;
58372;SDS011;44177;43.356;27.672;2022-12-08T10:48:46;65.55;;;29.00;;
58372;SDS011;44177;43.356;27.672;2022-12-08T10:51:27;67.80;;;29.40;;
58372;SDS011;44177;43.356;27.672;2022-12-08T10:53:58;58.10;;;27.23;;
58372;SDS011;44177;43.356;27.672;2022-12-08T10:56:28;56.03;;;26.33;;
58372;SDS011;44177;43.356;27.672;2022-12-08T11:01:54;57.70;;;25.92;;
58372;SDS011;44177;43.356;27.672;2022-12-08T11:04:29;54.22;;;26.48;;
58372;SDS011;44177;43.356;27.672;2022-12-08T11:07:00;58.95;;;25.75;;
58372;SDS011;44177;43.356;27.672;2022-12-08T11:12:06;60.83;;;24.90;;
58372;SDS011;44177;43.356;27.672;2022-12-08T11:17:08;58.55;;;24.27;;
58372;SDS011;44177;43.356;27.672;2022-12-08T11:19:37;63.20;;;24.35;;
58372;SDS011;44177;43.356;27.672;2022-12-08T11:24:45;68.35;;;24.27;;
58372;SDS011;44177;43.356;27.672;2022-12-08T11:27:20;63.80;;;22.75;;
58372;SDS011;44177;43.356;27.672;2022-12-08T11:29:45;63.13;;;24.45;;
58372;SDS011;44177;43.356;27.672;2022-12-08T11:32:12;64.22;;;22.13;;
58372;SDS011;44177;43.356;27.672;2022-12-08T11:34:43;61.35;;;23.52;;
58372;SDS011;44177;43.356;27.672;2022-12-08T11:37:16;73.40;;;24.65;;
58372;SDS011;44177;43.356;27.672;2022-12-08T11:39:49;80.18;;;23.98;;
58372;SDS011;44177;43.356;27.672;2022-12-08T11:42:19;94.32;;;25.15;;
58372;SDS011;44177;43.356;27.672;2022-12-08T11:47:33;82.40;;;25.40;;
58372;SDS011;44177;43.356;27.672;2022-12-08T11:50:18;104.68;;;34.75;;
58372;SDS011;44177;43.356;27.672;2022-12-08T11:52:51;118.63;;;37.17;;
58372;SDS011;44177;43.356;27.672;2022-12-08T12:01:21;123.00;;;41.13;;
58372;SDS011;44177;43.356;27.672;2022-12-08T12:09:11;87.72;;;34.83;;
58372;SDS011;44177;43.356;27.672;2022-12-08T12:12:23;102.85;;;36.38;;
58372;SDS011;44177;43.356;27.672;2022-12-08T12:17:44;111.07;;;40.67;;
58372;SDS011;44177;43.356;27.672;2022-12-08T12:20:27;125.63;;;47.45;;
58372;SDS011;44177;43.356;27.672;2022-12-08T12:23:01;140.35;;;55.72;;
58372;SDS011;44177;43.356;27.672;2022-12-08T12:25:32;150.13;;;63.05;;
58372;SDS011;44177;43.356;27.672;2022-12-08T12:28:01;148.73;;;64.20;;
58372;SDS011;44177;43.356;27.672;2022-12-08T12:30:47;153.77;;;63.65;;
58372;SDS011;44177;43.356;27.672;2022-12-08T12:33:14;138.07;;;59.97;;
58372;SDS011;44177;43.356;27.672;2022-12-08T12:35:42;136.00;;;57.05;;
58372;SDS011;44177;43.356;27.672;2022-12-08T12:38:25;140.00;;;57.42;;
58372;SDS011;44177;43.356;27.672;2022-12-08T12:41:14;131.35;;;54.60;;
58372;SDS011;44177;43.356;27.672;2022-12-08T12:46:57;126.00;;;52.47;;
58372;SDS011;44177;43.356;27.672;2022-12-08T12:52:10;112.53;;;48.50;;
58372;SDS011;44177;43.356;27.672;2022-12-08T13:00:05;121.28;;;49.53;;
58372;SDS011;44177;43.356;27.672;2022-12-08T13:05:02;104.07;;;48.08;;
58372;SDS011;44177;43.356;27.672;2022-12-08T13:07:33;101.63;;;46.97;;
58372;SDS011;44177;43.356;27.672;2022-12-08T13:10:12;97.07;;;44.15;;
58372;SDS011;44177;43.356;27.672;2022-12-08T13:12:41;98.60;;;44.13;;
58372;SDS011;44177;43.356;27.672;2022-12-08T13:15:15;94.78;;;44.00;;
58372;SDS011;44177;43.356;27.672;2022-12-08T13:17:46;93.00;;;42.67;;
58372;SDS011;44177;43.356;27.672;2022-12-08T13:20:17;88.68;;;43.85;;
58372;SDS011;44177;43.356;27.672;2022-12-08T13:30:41;97.30;;;42.83;;
58372;SDS011;44177;43.356;27.672;2022-12-08T13:38:35;87.22;;;38.50;;
58372;SDS011;44177;43.356;27.672;2022-12-08T13:41:04;97.20;;;40.30;;
58372;SDS011;44177;43.356;27.672;2022-12-08T13:43:37;97.55;;;40.45;;
58372;SDS011;44177;43.356;27.672;2022-12-08T13:46:19;101.13;;;40.63;;
58372;SDS011;44177;43.356;27.672;2022-12-08T13:48:53;110.93;;;44.13;;
58372;SDS011;44177;43.356;27.672;2022-12-08T13:51:22;111.68;;;42.55;;
58372;SDS011;44177;43.356;27.672;2022-12-08T13:56:43;113.15;;;44.95;;
58372;SDS011;44177;43.356;27.672;2022-12-08T13:59:22;128.57;;;46.10;;
58372;SDS011;44177;43.356;27.672;2022-12-08T14:01:52;113.13;;;43.72;;
58372;SDS011;44177;43.356;27.672;2022-12-08T14:04:19;118.57;;;45.72;;
58372;SDS011;44177;43.356;27.672;2022-12-08T14:06:54;117.28;;;44.35;;
58372;SDS011;44177;43.356;27.672;2022-12-08T14:09:23;125.82;;;45.03;;
58372;SDS011;44177;43.356;27.672;2022-12-08T14:14:26;128.90;;;45.85;;
58372;SDS011;44177;43.356;27.672;2022-12-08T14:17:08;128.90;;;44.03;;
58372;SDS011;44177;43.356;27.672;2022-12-08T14:19:36;141.57;;;46.97;;
58372;SDS011;44177;43.356;27.672;2022-12-08T14:22:15;120.38;;;47.25;;
58372;SDS011;44177;43.356;27.672;2022-12-08T14:24:45;125.25;;;46.63;;
58372;SDS011;44177;43.356;27.672;2022-12-08T14:27:16;150.73;;;50.65;;
58372;SDS011;44177;43.356;27.672;2022-12-08T14:29:45;127.80;;;46.78;;
58372;SDS011;44177;43.356;27.672;2022-12-08T14:32:20;143.20;;;48.88;;
58372;SDS011;44177;43.356;27.672;2022-12-08T14:34:58;120.05;;;48.38;;
58372;SDS011;44177;43.356;27.672;2022-12-08T14:37:34;138.77;;;49.33;;
58372;SDS011;44177;43.356;27.672;2022-12-08T14:40:03;121.35;;;48.17;;
58372;SDS011;44177;43.356;27.672;2022-12-08T14:42:35;118.68;;;47.83;;
58372;SDS011;44177;43.356;27.672;2022-12-08T14:45:10;127.80;;;50.05;;
58372;SDS011;44177;43.356;27.672;2022-12-08T14:47:38;144.00;;;49.28;;
58372;SDS011;44177;43.356;27.672;2022-12-08T14:50:04;153.23;;;49.55;;
58372;SDS011;44177;43.356;27.672;2022-12-08T14:53:20;127.45;;;46.95;;
58372;SDS011;44177;43.356;27.672;2022-12-08T14:55:46;130.73;;;50.42;;
58372;SDS011;44177;43.356;27.672;2022-12-08T14:58:27;134.90;;;49.58;;
58372;SDS011;44177;43.356;27.672;2022-12-08T15:00:57;114.72;;;49.55;;
58372;SDS011;44177;43.356;27.672;2022-12-08T15:03:25;119.07;;;49.85;;
58372;SDS011;44177;43.356;27.672;2022-12-08T15:05:59;121.78;;;49.45;;
58372;SDS011;44177;43.356;27.672;2022-12-08T15:08:29;134.43;;;50.40;;
58372;SDS011;44177;43.356;27.672;2022-12-08T15:13:59;128.48;;;49.85;;
58372;SDS011;44177;43.356;27.672;2022-12-08T15:16:27;142.75;;;50.17;;
58372;SDS011;44177;43.356;27.672;2022-12-08T15:21:51;126.70;;;50.47;;
58372;SDS011;44177;43.356;27.672;2022-12-08T15:24:17;106.97;;;47.95;;
58372;SDS011;44177;43.356;27.672;2022-12-08T15:26:47;113.90;;;49.90;;
58372;SDS011;44177;43.356;27.672;2022-12-08T15:29:21;127.65;;;51.47;;
58372;SDS011;44177;43.356;27.672;2022-12-08T15:31:49;126.15;;;50.58;;
58372;SDS011;44177;43.356;27.672;2022-12-08T15:34:17;124.85;;;51.22;;
58372;SDS011;44177;43.356;27.672;2022-12-08T15:36:43;118.03;;;53.17;;
58372;SDS011;44177;43.356;27.672;2022-12-08T15:39:17;131.25;;;53.80;;
58372;SDS011;44177;43.356;27.672;2022-12-08T15:41:48;129.93;;;54.20;;
58372;SDS011;44177;43.356;27.672;2022-12-08T15:44:14;130.27;;;53.25;;
58372;SDS011;44177;43.356;27.672;2022-12-08T15:46:39;126.18;;;54.20;;
58372;SDS011;44177;43.356;27.672;2022-12-08T15:49:05;118.15;;;51.15;;
58372;SDS011;44177;43.356;27.672;2022-12-08T15:51:30;116.72;;;53.33;;
58372;SDS011;44177;43.356;27.672;2022-12-08T15:54:00;129.50;;;55.22;;
58372;SDS011;44177;43.356;27.672;2022-12-08T15:56:26;121.72;;;55.45;;
58372;SDS011;44177;43.356;27.672;2022-12-08T15:58:53;125.07;;;54.95;;
58372;SDS011;44177;43.356;27.672;2022-12-08T16:01:18;120.03;;;52.28;;
58372;SDS011;44177;43.356;27.672;2022-12-08T16:03:43;130.18;;;56.65;;
58372;SDS011;44177;43.356;27.672;2022-12-08T16:06:11;126.63;;;54.38;;
58372;SDS011;44177;43.356;27.672;2022-12-08T16:08:41;124.57;;;55.47;;
58372;SDS011;44177;43.356;27.672;2022-12-08T16:11:07;116.63;;;53.63;;